Time;durP1;ratioP1;P1;durP2;ratioP2;P2;SDS_P1;SDS_P2;PMS_P1;PMS_P2;Temp;Humidity;BMP_temperature;BMP_pressure;BME280_temperature;BME280_humidity;BME280_pressure;Samples;Min_cycle;Max_cycle;Signal;HPM_P1;HPM_P2
2021/01/28 00:02:45;;;;;;;2.73;2.13;;;15.80;32.10;;;;;;8395982;28;20039;-55
2021/01/28 00:06:45;;;;;;;3.27;2.50;;;15.80;32.10;;;;;;8400286;28;20067;-54
2021/01/28 00:10:46;;;;;;;4.23;2.80;;;15.80;32.10;;;;;;8393746;28;20036;-56
2021/01/28 00:14:47;;;;;;;2.70;2.50;;;15.80;32.10;;;;;;8395612;28;20127;-54
2021/01/28 00:18:47;;;;;;;3.67;2.43;;;15.80;32.10;;;;;;8395336;27;20036;-55
2021/01/28 00:22:48;;;;;;;2.90;2.30;;;15.80;32.20;;;;;;8393430;28;20033;-56
2021/01/28 00:26:48;;;;;;;4.40;2.43;;;15.80;32.10;;;;;;8399329;28;20473;-55
2021/01/28 00:30:52;;;;;;;2.90;2.23;;;15.80;32.10;;;;;;8395060;28;20401;-55
2021/01/28 00:34:53;;;;;;;2.63;2.08;;;15.80;32.10;;;;;;8394434;27;20041;-55
2021/01/28 00:38:53;;;;;;;3.60;2.40;;;15.80;32.10;;;;;;8394583;28;20029;-55
2021/01/28 00:42:54;;;;;;;2.73;2.10;;;15.80;32.20;;;;;;8397168;28;20032;-53
2021/01/28 00:46:54;;;;;;;2.70;2.10;;;15.80;32.20;;;;;;8423817;28;20519;-56
2021/01/28 00:50:57;;;;;;;4.23;2.57;;;15.80;32.30;;;;;;8407281;28;20036;-55
2021/01/28 00:54:57;;;;;;;3.30;2.28;;;15.80;32.20;;;;;;8392426;28;20048;-55
2021/01/28 00:58:58;;;;;;;4.53;2.53;;;15.80;32.20;;;;;;8394095;28;20033;-55
2021/01/28 01:02:58;;;;;;;2.90;2.40;;;15.80;32.10;;;;;;8397418;28;20028;-55
2021/01/28 01:06:59;;;;;;;3.20;2.27;;;15.80;32.20;;;;;;8392220;28;20048;-56
2021/01/28 01:11:11;;;;;;;2.93;2.10;;;15.80;32.20;;;;;;8393685;28;20031;-56
2021/01/28 01:15:13;;;;;;;2.33;2.03;;;15.80;32.30;;;;;;8394387;28;20520;-55
2021/01/28 01:19:15;;;;;;;2.88;2.35;;;15.80;32.20;;;;;;8396219;28;20162;-56
2021/01/28 01:23:16;;;;;;;2.95;2.22;;;15.80;32.20;;;;;;8422306;28;20066;-54
2021/01/28 01:27:16;;;;;;;2.70;2.20;;;15.80;32.30;;;;;;8406445;28;20090;-55
2021/01/28 01:31:17;;;;;;;2.90;2.30;;;15.80;32.30;;;;;;8391418;27;20111;-55
2021/01/28 01:35:20;;;;;;;3.03;2.20;;;15.80;32.30;;;;;;8394951;28;20082;-56
2021/01/28 01:39:21;;;;;;;2.28;2.08;;;15.80;32.30;;;;;;8395941;28;20112;-56
2021/01/28 01:43:22;;;;;;;2.53;2.33;;;15.80;32.30;;;;;;8391347;28;20036;-55
2021/01/28 01:47:35;;;;;;;2.23;1.90;;;15.80;32.30;;;;;;8392981;28;20041;-55
2021/01/28 01:51:41;;;;;;;2.67;2.20;;;15.80;32.40;;;;;;8392359;28;20024;-56
2021/01/28 01:55:46;;;;;;;2.67;2.20;;;15.80;32.30;;;;;;8395156;27;20071;-56
2021/01/28 01:59:52;;;;;;;3.05;2.55;;;15.80;32.40;;;;;;8392914;28;20392;-55
2021/01/28 02:03:54;;;;;;;2.13;1.80;;;15.80;32.40;;;;;;8391872;28;20033;-56
2021/01/28 02:07:55;;;;;;;2.80;2.00;;;15.80;32.40;;;;;;8391363;28;20064;-56
2021/01/28 02:11:56;;;;;;;2.25;2.05;;;15.80;32.30;;;;;;8391789;28;20036;-56
2021/01/28 02:15:57;;;;;;;2.30;2.10;;;15.80;32.40;;;;;;8394318;28;20055;-56
2021/01/28 02:20:17;;;;;;;3.07;2.20;;;15.80;32.40;;;;;;8416539;28;20043;-56
2021/01/28 02:24:48;;;;;;;2.42;2.22;;;15.80;32.40;;;;;;8406605;28;20032;-56
2021/01/28 02:28:49;;;;;;;2.65;2.22;;;15.80;32.40;;;;;;8390291;28;20048;-56
2021/01/28 02:32:51;;;;;;;2.17;1.83;;;15.80;32.40;;;;;;8391583;28;20029;-55
2021/01/28 02:36:54;;;;;;;2.45;2.25;;;15.80;32.40;;;;;;8395397;28;20041;-56
2021/01/28 02:40:56;;;;;;;2.10;1.90;;;15.80;32.40;;;;;;8389862;28;20028;-56
2021/01/28 02:44:57;;;;;;;2.33;2.05;;;15.80;33.00;;;;;;8391074;27;20037;-56
2021/01/28 02:48:58;;;;;;;3.03;2.22;;;15.80;32.40;;;;;;8388924;28;20037;-55
2021/01/28 02:53:01;;;;;;;2.50;2.00;;;15.80;32.50;;;;;;8395316;28;20095;-55
2021/01/28 02:57:02;;;;;;;3.00;2.10;;;15.80;32.40;;;;;;8390635;28;20051;-55
2021/01/28 03:01:05;;;;;;;2.53;2.07;;;15.80;32.40;;;;;;8389310;27;20028;-55
2021/01/28 03:05:07;;;;;;;2.30;2.10;;;15.80;32.40;;;;;;8390926;28;20081;-55
2021/01/28 03:09:07;;;;;;;2.55;2.20;;;15.80;32.40;;;;;;8391007;28;20035;-55
2021/01/28 03:13:10;;;;;;;2.27;1.90;;;15.80;32.40;;;;;;8393075;28;20025;-55
2021/01/28 03:17:10;;;;;;;2.20;2.00;;;15.80;32.40;;;;;;8390607;28;20052;-55
2021/01/28 03:21:11;;;;;;;2.23;1.87;;;15.80;32.40;;;;;;8406547;28;20070;-55
2021/01/28 03:25:13;;;;;;;2.97;2.50;;;15.80;32.40;;;;;;8422971;28;20036;-56
2021/01/28 03:29:14;;;;;;;2.03;1.83;;;15.80;32.40;;;;;;8401196;28;20078;-56
2021/01/28 03:33:17;;;;;;;2.27;1.97;;;15.80;32.40;;;;;;8396856;28;20058;-56
2021/01/28 03:37:18;;;;;;;2.15;1.95;;;15.80;32.40;;;;;;8394881;27;20048;-56
2021/01/28 03:41:18;;;;;;;1.87;1.60;;;15.80;32.40;;;;;;8396475;28;20041;-56
2021/01/28 03:45:19;;;;;;;2.80;2.17;;;15.80;32.50;;;;;;8398690;28;20043;-56
2021/01/28 03:49:20;;;;;;;2.23;1.97;;;15.80;32.40;;;;;;8396877;27;20040;-55
2021/01/28 03:53:20;;;;;;;2.37;2.00;;;15.80;32.50;;;;;;8396181;28;20037;-57
2021/01/28 03:57:21;;;;;;;2.10;1.90;;;15.80;32.50;;;;;;8396049;27;20485;-55
2021/01/28 04:01:21;;;;;;;2.77;2.13;;;15.80;32.50;;;;;;8394303;28;20028;-55
2021/01/28 04:05:22;;;;;;;2.07;1.80;;;15.80;32.60;;;;;;8400292;28;20044;-55
2021/01/28 04:09:23;;;;;;;2.22;2.03;;;15.80;32.60;;;;;;8395973;28;20032;-56
2021/01/28 04:13:23;;;;;;;2.33;2.00;;;15.80;32.60;;;;;;8394128;28;20056;-55
2021/01/28 04:17:24;;;;;;;2.17;1.93;;;15.80;32.70;;;;;;8402001;28;20097;-55
2021/01/28 04:21:25;;;;;;;2.60;1.87;;;15.80;32.70;;;;;;8433695;28;20039;-56
2021/01/28 04:25:26;;;;;;;2.10;1.90;;;15.80;32.90;;;;;;8396077;28;20032;-56
2021/01/28 04:29:26;;;;;;;2.17;1.83;;;15.90;32.90;;;;;;8395403;28;20071;-56
2021/01/28 04:33:27;;;;;;;2.53;1.90;;;15.90;32.90;;;;;;8393867;28;20507;-56
2021/01/28 04:37:27;;;;;;;2.77;1.70;;;15.90;32.70;;;;;;8393325;27;20082;-54
2021/01/28 04:41:30;;;;;;;2.50;1.77;;;16.00;32.70;;;;;;8399148;28;20028;-54
2021/01/28 04:45:32;;;;;;;2.72;1.67;;;16.00;32.80;;;;;;8394998;28;20474;-54
2021/01/28 04:49:32;;;;;;;2.33;1.90;;;16.10;32.60;;;;;;8392951;28;20036;-54
2021/01/28 04:53:52;;;;;;;1.90;1.70;;;16.10;32.70;;;;;;8394628;28;20504;-54
2021/01/28 04:57:53;;;;;;;2.03;1.42;;;16.10;32.80;;;;;;8397124;28;20493;-49
2021/01/28 05:01:54;;;;;;;2.23;1.90;;;16.10;32.70;;;;;;8394160;28;20034;-53
2021/01/28 05:05:58;;;;;;;3.33;2.43;;;16.00;32.60;;;;;;8415445;28;20488;-55
2021/01/28 05:10:13;;;;;;;1.73;1.63;;;16.00;32.60;;;;;;8413697;28;20037;-54
2021/01/28 05:14:15;;;;;;;2.92;1.70;;;16.00;32.60;;;;;;8393484;28;20048;-53
2021/01/28 05:18:22;;;;;;;2.03;1.70;;;16.00;32.60;;;;;;8398027;28;20448;-54
2021/01/28 05:22:26;;;;;;;2.50;2.08;;;16.00;32.70;;;;;;8391776;28;20028;-54
2021/01/28 05:26:29;;;;;;;1.60;1.48;;;16.00;32.60;;;;;;8393236;28;20040;-54
2021/01/28 05:30:41;;;;;;;2.17;1.67;;;15.90;32.50;;;;;;8393196;28;20067;-54
2021/01/28 05:34:42;;;;;;;1.67;1.58;;;15.90;32.60;;;;;;8391511;28;20048;-54
2021/01/28 05:38:49;;;;;;;2.20;1.70;;;15.90;32.60;;;;;;8397423;28;20036;-54
2021/01/28 05:42:53;;;;;;;2.65;1.88;;;15.90;32.70;;;;;;8392826;28;20066;-54
2021/01/28 05:47:11;;;;;;;1.60;1.50;;;15.90;32.70;;;;;;8391168;28;20029;-54
2021/01/28 05:51:20;;;;;;;2.15;1.90;;;15.80;32.80;;;;;;8392641;28;20082;-54
2021/01/28 05:55:23;;;;;;;1.83;1.60;;;15.80;32.70;;;;;;8393130;28;20090;-53
2021/01/28 05:59:42;;;;;;;2.00;1.75;;;15.80;33.30;;;;;;8395522;28;20039;-57
2021/01/28 06:04:04;;;;;;;2.90;1.63;;;15.90;32.80;;;;;;8392326;28;20043;-56
2021/01/28 06:08:34;;;;;;;2.28;1.95;;;15.80;32.80;;;;;;8391268;28;20036;-56
2021/01/28 06:12:35;;;;;;;1.70;1.60;;;15.80;32.80;;;;;;8392162;28;20052;-54
2021/01/28 06:17:28;;;;;;;1.63;1.50;;;15.80;32.80;;;;;;8390580;28;20040;-53
2021/01/28 06:21:47;;;;;;;2.15;1.67;;;15.80;32.80;;;;;;8391779;28;20060;-55
2021/01/28 06:26:07;;;;;;;2.10;1.60;;;15.80;32.80;;;;;;8394636;28;20032;-56
2021/01/28 06:30:19;;;;;;;2.28;1.88;;;15.70;32.70;;;;;;8391612;28;20033;-56
2021/01/28 06:34:52;;;;;;;2.00;1.60;;;15.70;33.10;;;;;;8390047;27;20040;-56
2021/01/28 06:39:12;;;;;;;2.28;1.58;;;15.80;33.30;;;;;;8390982;28;20060;-56
2021/01/28 06:43:20;;;;;;;1.98;1.50;;;15.90;33.20;;;;;;8389610;28;20045;-56
2021/01/28 06:47:31;;;;;;;2.88;1.80;;;15.90;33.10;;;;;;8393330;28;20097;-55
2021/01/28 06:51:44;;;;;;;2.10;1.80;;;15.90;33.10;;;;;;8362246;28;20444;-56
2021/01/28 06:55:54;;;;;;;3.15;1.70;;;16.00;33.30;;;;;;8383130;28;20067;-54
2021/01/28 07:00:31;;;;;;;2.03;1.58;;;16.00;33.20;;;;;;8398113;28;20036;-53
2021/01/28 07:05:13;;;;;;;3.15;1.92;;;16.00;33.10;;;;;;8396835;28;20029;-54
2021/01/28 07:09:19;;;;;;;1.65;1.50;;;16.00;33.10;;;;;;8397702;28;20098;-55
2021/01/28 07:13:33;;;;;;;1.77;1.60;;;16.00;33.00;;;;;;8399099;28;20024;-56
2021/01/28 07:17:44;;;;;;;2.28;1.80;;;16.00;33.00;;;;;;8368501;28;20123;-54
2021/01/28 07:21:49;;;;;;;2.03;1.77;;;16.00;33.00;;;;;;8390541;28;20036;-55
2021/01/28 07:25:53;;;;;;;1.98;1.60;;;16.00;33.40;;;;;;8396381;28;20028;-54
2021/01/28 07:29:55;;;;;;;2.05;1.60;;;16.00;32.90;;;;;;8397512;28;20429;-56
2021/01/28 07:33:58;;;;;;;2.33;1.92;;;16.00;32.90;;;;;;8399649;28;20033;-55
2021/01/28 07:38:28;;;;;;;2.00;1.80;;;16.00;32.90;;;;;;8397004;28;20045;-55
2021/01/28 07:42:32;;;;;;;4.10;1.92;;;15.90;32.80;;;;;;8421924;28;20028;-57
2021/01/28 07:46:39;;;;;;;2.83;1.70;;;15.90;32.90;;;;;;8411766;28;20163;-55
2021/01/28 07:50:41;;;;;;;1.52;1.40;;;15.90;33.00;;;;;;8396627;28;20493;-55
2021/01/28 07:54:46;;;;;;;3.25;2.00;;;15.90;33.00;;;;;;8400485;28;20139;-57
2021/01/28 07:58:51;;;;;;;2.15;1.70;;;15.90;33.00;;;;;;8394201;28;20029;-58
2021/01/28 08:03:03;;;;;;;1.70;1.60;;;15.90;33.00;;;;;;8395837;28;20063;-57
2021/01/28 08:07:04;;;;;;;;;;;15.90;33.10;;;;;;8407764;28;20040;-56
2021/01/28 08:11:17;;;;;;;4.27;2.10;;;15.90;33.10;;;;;;8425168;28;19912;-57
2021/01/28 08:15:23;;;;;;;2.67;1.90;;;15.80;33.20;;;;;;8399962;28;20681;-56
2021/01/28 08:19:26;;;;;;;2.42;1.90;;;15.80;33.10;;;;;;8393989;28;20052;-56
2021/01/28 08:23:27;;;;;;;1.92;1.60;;;15.80;33.10;;;;;;8415258;27;20388;-56
2021/01/28 08:27:34;;;;;;;2.58;2.00;;;15.80;33.20;;;;;;8417353;28;20045;-57
2021/01/28 08:31:44;;;;;;;2.22;2.00;;;15.80;33.20;;;;;;8394701;27;20033;-55
2021/01/28 08:35:49;;;;;;;2.00;1.80;;;15.80;33.60;;;;;;8432967;28;20063;-56
2021/01/28 08:39:54;;;;;;;1.83;1.50;;;15.80;33.60;;;;;;8400790;28;20032;-56
2021/01/28 08:44:00;;;;;;;3.25;2.20;;;15.80;33.70;;;;;;8409730;28;20024;-56
2021/01/28 08:48:04;;;;;;;3.10;1.60;;;15.90;33.60;;;;;;8419135;28;20393;-56
2021/01/28 08:52:08;;;;;;;1.92;1.50;;;15.90;33.50;;;;;;8396914;27;20077;-56
2021/01/28 08:56:22;;;;;;;1.88;1.67;;;16.00;33.50;;;;;;8426442;28;20051;-56
2021/01/28 09:00:23;;;;;;;2.35;1.83;;;16.00;33.40;;;;;;8402266;28;20040;-56
2021/01/28 09:04:33;;;;;;;1.80;1.35;;;16.10;33.50;;;;;;8392453;28;20094;-56
2021/01/28 09:08:39;;;;;;;1.45;1.33;;;16.10;33.50;;;;;;8393803;28;20041;-55
2021/01/28 09:12:39;;;;;;;2.42;1.70;;;16.10;33.40;;;;;;8397840;28;20497;-56
2021/01/28 09:16:49;;;;;;;1.93;1.67;;;16.10;33.50;;;;;;8391842;27;20192;-56
2021/01/28 09:20:50;;;;;;;2.70;1.80;;;16.10;33.40;;;;;;8392555;28;20070;-56
2021/01/28 09:24:51;;;;;;;1.80;1.70;;;16.10;33.40;;;;;;8393225;28;20040;-56
2021/01/28 09:28:51;;;;;;;1.77;1.53;;;16.10;33.30;;;;;;8391583;28;20123;-56
2021/01/28 09:32:52;;;;;;;2.67;1.77;;;16.10;33.40;;;;;;8397105;28;20078;-56
2021/01/28 09:37:00;;;;;;;1.60;1.47;;;16.00;33.30;;;;;;8392653;28;20055;-56
2021/01/28 09:41:08;;;;;;;1.75;1.65;;;16.00;33.40;;;;;;8391337;28;20557;-56
2021/01/28 09:45:13;;;;;;;2.08;1.40;;;16.00;33.20;;;;;;8391950;28;20521;-56
2021/01/28 09:49:14;;;;;;;2.40;1.50;;;16.00;33.30;;;;;;8394923;28;20492;-56
2021/01/28 09:53:14;;;;;;;3.73;1.63;;;16.00;33.30;;;;;;8392966;28;20036;-56
2021/01/28 09:57:15;;;;;;;2.10;1.80;;;15.90;33.30;;;;;;8391897;28;20048;-56
2021/01/28 10:01:16;;;;;;;2.00;1.67;;;15.90;33.40;;;;;;8390425;28;20032;-56
2021/01/28 10:05:21;;;;;;;2.10;1.80;;;15.90;33.50;;;;;;8391690;28;20037;-56
2021/01/28 10:09:21;;;;;;;3.70;1.60;;;15.90;33.50;;;;;;8395859;28;20036;-56
2021/01/28 10:13:22;;;;;;;1.70;1.40;;;15.90;33.50;;;;;;8415872;27;20143;-56
2021/01/28 10:17:22;;;;;;;1.73;1.47;;;15.90;33.60;;;;;;8423927;28;20082;-56
2021/01/28 10:21:24;;;;;;;1.83;1.50;;;15.90;33.50;;;;;;8417951;28;20338;-56
2021/01/28 10:25:25;;;;;;;3.97;1.58;;;15.90;33.60;;;;;;8394009;28;20044;-56
2021/01/28 10:29:25;;;;;;;2.47;1.50;;;15.90;33.60;;;;;;8391305;28;20067;-56
2021/01/28 10:33:29;;;;;;;1.83;1.40;;;15.90;33.60;;;;;;8391140;28;20456;-56
2021/01/28 10:37:29;;;;;;;1.40;1.30;;;15.80;33.50;;;;;;8389603;27;20041;-56
2021/01/28 10:41:30;;;;;;;3.03;1.73;;;15.80;33.90;;;;;;8391988;28;20078;-56
2021/01/28 10:45:35;;;;;;;1.97;1.47;;;15.90;33.90;;;;;;8428724;28;20369;-57
2021/01/28 10:49:35;;;;;;;1.55;1.40;;;15.90;34.20;;;;;;8400266;28;20033;-55
2021/01/28 10:53:37;;;;;;;2.70;1.73;;;16.00;34.00;;;;;;8412138;28;20045;-55
2021/01/28 10:57:37;;;;;;;1.48;1.33;;;16.00;33.90;;;;;;8425858;27;20040;-56
2021/01/28 11:01:38;;;;;;;1.70;1.53;;;16.00;34.00;;;;;;8398528;28;20033;-56
2021/01/28 11:05:38;;;;;;;1.60;1.50;;;16.10;34.00;;;;;;8392808;28;20075;-56
2021/01/28 11:09:39;;;;;;;1.77;1.30;;;16.10;34.00;;;;;;8390759;28;20608;-55
2021/01/28 11:13:39;;;;;;;1.70;1.40;;;16.10;34.00;;;;;;8389393;28;20025;-56
2021/01/28 11:17:40;;;;;;;1.83;1.70;;;16.10;33.90;;;;;;8395335;28;20053;-56
2021/01/28 11:21:41;;;;;;;2.00;1.80;;;16.20;34.00;;;;;;8390564;28;20086;-57
2021/01/28 11:25:41;;;;;;;2.07;1.70;;;16.20;33.90;;;;;;8389058;28;20036;-56
2021/01/28 11:29:42;;;;;;;1.73;1.63;;;16.20;33.80;;;;;;8390561;28;20056;-55
2021/01/28 11:33:43;;;;;;;2.10;1.80;;;16.10;33.80;;;;;;8390372;28;20036;-56
2021/01/28 11:37:46;;;;;;;1.87;1.77;;;16.10;33.80;;;;;;8393060;27;20120;-56
2021/01/28 11:41:47;;;;;;;2.97;1.70;;;16.10;33.80;;;;;;8390919;28;20037;-56
2021/01/28 11:45:47;;;;;;;1.90;1.60;;;16.10;33.60;;;;;;8396349;28;20032;-56
2021/01/28 11:49:48;;;;;;;3.00;1.43;;;16.10;33.70;;;;;;8394698;27;20025;-56
2021/01/28 11:53:48;;;;;;;2.80;1.60;;;16.10;33.60;;;;;;8400538;28;20032;-56
2021/01/28 11:57:49;;;;;;;1.70;1.60;;;16.00;33.70;;;;;;8396066;28;20497;-56
2021/01/28 12:01:50;;;;;;;2.23;1.90;;;16.00;33.60;;;;;;8413755;28;20405;-57
2021/01/28 12:05:51;;;;;;;1.87;1.63;;;16.00;33.80;;;;;;8419139;28;20035;-56
2021/01/28 12:09:51;;;;;;;1.52;1.42;;;16.00;33.80;;;;;;8396406;28;20370;-56
2021/01/28 12:13:52;;;;;;;3.13;1.53;;;16.00;33.90;;;;;;8397023;28;20016;-56
2021/01/28 12:17:53;;;;;;;3.33;2.43;;;16.10;33.90;;;;;;8395602;28;20048;-56
2021/01/28 12:21:54;;;;;;;1.77;1.67;;;16.00;33.90;;;;;;8394000;28;20401;-49
2021/01/28 12:25:54;;;;;;;1.70;1.60;;;16.00;33.90;;;;;;8395299;28;20036;-56
2021/01/28 12:29:55;;;;;;;3.07;2.20;;;16.00;33.90;;;;;;8399694;28;20029;-56
2021/01/28 12:33:56;;;;;;;2.13;1.80;;;16.00;33.90;;;;;;8393568;27;20037;-55
2021/01/28 12:37:56;;;;;;;1.93;1.60;;;16.00;33.90;;;;;;8395242;28;20041;-55
2021/01/28 12:41:57;;;;;;;1.70;1.60;;;15.90;33.90;;;;;;8394922;28;20085;-56
2021/01/28 12:45:58;;;;;;;2.63;1.70;;;15.90;33.90;;;;;;8397311;28;20055;-55
2021/01/28 12:49:58;;;;;;;2.80;1.67;;;16.00;34.40;;;;;;8394844;27;20119;-55
2021/01/28 12:53:59;;;;;;;2.03;1.80;;;16.00;34.50;;;;;;8414411;28;20040;-55
2021/01/28 12:57:59;;;;;;;2.37;2.00;;;16.10;34.60;;;;;;8425034;28;20044;-56
2021/01/28 13:02:00;;;;;;;1.73;1.60;;;16.10;34.50;;;;;;8425942;27;20481;-55
2021/01/28 13:06:01;;;;;;;2.37;1.70;;;16.10;34.50;;;;;;8398607;28;20261;-56
2021/01/28 13:10:04;;;;;;;4.03;1.75;;;16.10;34.30;;;;;;8392190;28;20067;-55
2021/01/28 13:14:04;;;;;;;4.50;2.15;;;16.20;34.40;;;;;;8393615;28;20036;-57
2021/01/28 13:18:06;;;;;;;3.30;1.70;;;16.30;34.50;;;;;;8398635;27;20464;-55
2021/01/28 13:22:06;;;;;;;2.80;1.88;;;16.30;34.60;;;;;;8429434;28;20031;-56
2021/01/28 13:26:07;;;;;;;2.10;1.90;;;16.30;34.40;;;;;;8397552;28;20044;-55
2021/01/28 13:30:09;;;;;;;1.73;1.57;;;16.30;34.50;;;;;;8393353;27;20051;-55
2021/01/28 13:34:10;;;;;;;2.80;1.88;;;16.30;34.50;;;;;;8391447;28;20033;-55
2021/01/28 13:38:11;;;;;;;2.97;1.90;;;16.30;34.50;;;;;;8397188;27;20471;-55
2021/01/28 13:42:12;;;;;;;2.60;2.10;;;16.30;34.40;;;;;;8393279;28;20097;-55
2021/01/28 13:46:12;;;;;;;2.85;2.40;;;16.30;34.30;;;;;;8391635;27;20036;-55
2021/01/28 13:50:23;;;;;;;2.93;1.83;;;16.30;34.30;;;;;;8392674;28;20428;-56
2021/01/28 13:54:25;;;;;;;3.03;2.00;;;16.30;34.30;;;;;;8392767;27;20032;-56
2021/01/28 13:58:26;;;;;;;1.90;1.58;;;16.20;34.10;;;;;;8394888;28;20029;-55
2021/01/28 14:02:26;;;;;;;2.20;1.83;;;16.30;34.20;;;;;;8391937;28;20033;-55
2021/01/28 14:06:27;;;;;;;3.43;2.30;;;16.20;34.10;;;;;;8388148;28;20123;-55
2021/01/28 14:10:30;;;;;;;2.60;2.17;;;16.20;34.20;;;;;;8370485;28;20074;-56
2021/01/28 14:14:31;;;;;;;2.00;1.75;;;16.20;34.20;;;;;;8396371;28;20029;-56
2021/01/28 14:18:32;;;;;;;1.93;1.73;;;16.20;34.40;;;;;;8391781;27;20393;-55
2021/01/28 14:22:32;;;;;;;2.07;1.87;;;16.20;34.40;;;;;;8390071;27;20413;-56
2021/01/28 14:26:33;;;;;;;2.50;2.20;;;16.20;34.40;;;;;;8391392;28;20086;-55
2021/01/28 14:30:34;;;;;;;2.53;1.70;;;16.20;34.40;;;;;;8389611;27;20075;-55
2021/01/28 14:34:34;;;;;;;2.38;1.73;;;16.10;34.40;;;;;;8389566;28;20074;-55
2021/01/28 14:38:36;;;;;;;1.47;1.37;;;16.10;34.50;;;;;;8384045;28;20059;-55
2021/01/28 14:42:36;;;;;;;2.15;1.95;;;16.10;34.50;;;;;;8398502;28;20044;-52
2021/01/28 14:46:37;;;;;;;1.57;1.47;;;16.10;34.50;;;;;;8415720;28;20421;-50
2021/01/28 14:50:37;;;;;;;2.13;1.90;;;16.10;34.50;;;;;;8395203;28;20061;-53
2021/01/28 14:54:40;;;;;;;1.60;1.50;;;16.10;34.60;;;;;;8391023;27;20405;-50
2021/01/28 14:58:41;;;;;;;2.92;2.00;;;16.10;34.60;;;;;;8387515;27;20370;-53
2021/01/28 15:02:41;;;;;;;2.57;1.90;;;16.10;34.60;;;;;;8390525;28;20040;-54
2021/01/28 15:06:42;;;;;;;2.10;1.90;;;16.10;34.90;;;;;;8391872;28;20144;-55
2021/01/28 15:10:42;;;;;;;1.70;1.40;;;16.10;35.10;;;;;;8392331;28;20032;-54
2021/01/28 15:14:43;;;;;;;1.73;1.63;;;16.10;35.20;;;;;;8389927;27;20452;-54
2021/01/28 15:18:44;;;;;;;1.63;1.37;;;16.20;35.10;;;;;;8407080;28;20040;-53
2021/01/28 15:22:44;;;;;;;2.00;1.80;;;16.20;35.30;;;;;;8428002;28;20115;-55
2021/01/28 15:26:45;;;;;;;2.70;1.77;;;16.30;35.20;;;;;;8434957;27;20057;-54
2021/01/28 15:30:46;;;;;;;1.97;1.70;;;16.30;35.10;;;;;;8407526;28;20033;-54
2021/01/28 15:34:46;;;;;;;2.10;1.90;;;16.40;35.10;;;;;;8412992;27;20040;-55
2021/01/28 15:38:48;;;;;;;1.93;1.43;;;16.40;35.30;;;;;;8422421;28;20024;-49
2021/01/28 15:42:49;;;;;;;;;;;16.40;35.20;;;;;;8401218;27;20416;-54
2021/01/28 15:46:49;;;;;;;1.67;1.58;;;16.40;35.30;;;;;;8385920;28;19916;-54
2021/01/28 15:50:50;;;;;;;2.03;1.67;;;16.40;34.90;;;;;;8384765;28;20036;-55
2021/01/28 15:54:51;;;;;;;2.03;1.48;;;16.40;35.20;;;;;;8396768;27;20037;-55
2021/01/28 15:58:51;;;;;;;1.43;1.33;;;16.40;35.20;;;;;;8393961;28;20031;-57
2021/01/28 16:02:52;;;;;;;1.63;1.50;;;16.40;35.00;;;;;;8399327;27;20028;-54
2021/01/28 16:06:52;;;;;;;1.50;1.40;;;16.40;35.10;;;;;;8412760;28;20044;-52
2021/01/28 16:10:53;;;;;;;1.33;1.23;;;16.40;35.00;;;;;;8396859;28;20120;-54
2021/01/28 16:14:54;;;;;;;2.57;1.90;;;16.30;34.90;;;;;;8395228;28;20068;-54
2021/01/28 16:18:54;;;;;;;1.53;1.43;;;16.30;34.90;;;;;;8399063;27;20043;-52
2021/01/28 16:22:55;;;;;;;1.63;1.47;;;16.30;35.00;;;;;;8368825;28;20029;-54
2021/01/28 16:26:56;;;;;;;2.53;1.37;;;16.30;35.10;;;;;;8381193;28;20036;-56
2021/01/28 16:30:56;;;;;;;1.40;1.30;;;16.30;35.10;;;;;;8394125;28;20519;-55
2021/01/28 16:34:57;;;;;;;2.37;1.53;;;16.30;35.00;;;;;;8399219;28;20037;-56
2021/01/28 16:38:57;;;;;;;2.37;1.50;;;16.30;35.10;;;;;;8376954;28;20064;-53
2021/01/28 16:42:58;;;;;;;2.00;1.70;;;16.30;35.20;;;;;;8382610;28;20482;-54
2021/01/28 16:47:04;;;;;;;2.93;1.90;;;16.20;35.10;;;;;;8394595;28;20033;-54
2021/01/28 16:51:04;;;;;;;3.03;2.05;;;16.20;35.10;;;;;;8394544;28;20104;-53
2021/01/28 16:55:06;;;;;;;3.93;1.90;;;16.20;35.30;;;;;;8386251;27;20049;-54
2021/01/28 16:59:06;;;;;;;2.15;1.63;;;16.20;35.30;;;;;;8414600;28;20036;-51
2021/01/28 17:03:07;;;;;;;2.10;1.80;;;16.20;35.30;;;;;;8410673;28;20032;-52
2021/01/28 17:07:07;;;;;;;2.07;1.70;;;16.20;35.40;;;;;;8392450;28;20048;-54
2021/01/28 17:11:09;;;;;;;2.23;1.50;;;16.20;35.40;;;;;;8395184;28;20111;-53
2021/01/28 17:15:13;;;;;;;;;;;16.20;35.40;;;;;;8391895;28;20140;-51
2021/01/28 17:19:13;;;;;;;2.38;1.77;;;16.20;35.40;;;;;;8392458;28;20360;-54
2021/01/28 17:23:14;;;;;;;1.80;1.37;;;16.20;35.30;;;;;;8393830;28;20036;-54
2021/01/28 17:27:15;;;;;;;1.77;1.67;;;16.20;35.70;;;;;;8393366;28;20029;-54
2021/01/28 17:31:16;;;;;;;1.63;1.30;;;16.20;35.70;;;;;;8392541;28;20040;-52
2021/01/28 17:35:20;;;;;;;1.60;1.27;;;16.20;35.80;;;;;;8392926;28;20409;-52
2021/01/28 17:39:21;;;;;;;1.60;1.50;;;16.30;35.60;;;;;;8392795;28;20639;-52
2021/01/28 17:43:21;;;;;;;1.50;1.23;;;16.30;35.60;;;;;;8390855;28;20032;-54
2021/01/28 17:47:22;;;;;;;1.80;1.63;;;16.40;35.50;;;;;;8376102;27;20553;-49
2021/01/28 17:51:22;;;;;;;1.83;1.60;;;16.40;35.50;;;;;;8359124;28;20186;-56
2021/01/28 17:55:23;;;;;;;1.67;1.40;;;16.50;35.80;;;;;;8378110;27;20070;-54
2021/01/28 17:59:27;;;;;;;1.77;1.50;;;16.40;35.70;;;;;;8401940;28;20030;-51
2021/01/28 18:03:29;;;;;;;2.90;1.40;;;16.50;35.80;;;;;;8399944;28;20073;-55
2021/01/28 18:07:29;;;;;;;1.58;1.42;;;16.40;35.70;;;;;;8392863;28;20044;-53
2021/01/28 18:11:30;;;;;;;1.33;1.23;;;16.50;35.60;;;;;;8392396;28;20040;-55
2021/01/28 18:15:30;;;;;;;1.40;1.30;;;16.50;35.70;;;;;;8392009;28;20402;-54
2021/01/28 18:19:31;;;;;;;1.73;1.40;;;16.50;35.60;;;;;;8387742;28;20044;-54
2021/01/28 18:23:31;;;;;;;1.27;1.17;;;16.40;35.60;;;;;;8396303;28;20036;-54
2021/01/28 18:27:32;;;;;;;1.50;1.30;;;16.50;35.60;;;;;;8418036;28;20428;-53
2021/01/28 18:31:33;;;;;;;1.73;1.30;;;16.40;35.50;;;;;;8392017;28;20043;-53
2021/01/28 18:35:34;;;;;;;2.22;1.30;;;16.40;35.40;;;;;;8392526;28;20051;-54
2021/01/28 18:39:34;;;;;;;2.13;1.50;;;16.40;35.40;;;;;;8363835;28;20029;-53
2021/01/28 18:43:35;;;;;;;1.40;1.30;;;16.40;35.40;;;;;;8386905;27;20481;-54
2021/01/28 18:47:35;;;;;;;1.30;1.20;;;16.40;35.50;;;;;;8391655;28;20102;-54
2021/01/28 18:51:36;;;;;;;1.60;1.50;;;16.40;35.60;;;;;;8390090;28;20032;-55
2021/01/28 18:55:37;;;;;;;1.40;1.27;;;16.40;35.50;;;;;;8367667;28;20560;-53
2021/01/28 18:59:38;;;;;;;1.53;1.27;;;16.30;35.60;;;;;;8395619;28;20073;-52
2021/01/28 19:03:38;;;;;;;3.55;1.63;;;16.40;35.70;;;;;;8390553;28;20032;-58
2021/01/28 19:07:39;;;;;;;1.97;1.30;;;16.30;35.60;;;;;;8389820;28;20361;-55
2021/01/28 19:11:40;;;;;;;1.40;1.20;;;16.30;35.50;;;;;;8379967;27;20047;-55
2021/01/28 19:15:41;;;;;;;2.33;1.37;;;16.30;35.70;;;;;;8394959;28;20044;-56
2021/01/28 19:19:42;;;;;;;2.53;2.00;;;16.30;35.70;;;;;;8408588;27;20033;-56
2021/01/28 19:23:43;;;;;;;1.92;1.45;;;16.30;35.70;;;;;;8390897;28;20033;-56
2021/01/28 19:27:44;;;;;;;2.00;1.25;;;16.30;35.80;;;;;;8390722;28;20027;-57
2021/01/28 19:31:44;;;;;;;0.90;0.90;;;16.30;35.80;;;;;;8393170;28;20123;-56
2021/01/28 19:35:46;;;;;;;1.90;1.50;;;16.30;35.80;;;;;;8390719;28;20508;-56
2021/01/28 19:39:46;;;;;;;1.75;1.30;;;16.30;35.80;;;;;;8390241;28;20033;-57
2021/01/28 19:43:48;;;;;;;1.27;1.10;;;16.30;35.90;;;;;;8388793;28;20051;-56
2021/01/28 19:47:48;;;;;;;1.63;1.40;;;16.30;36.10;;;;;;8391377;28;20054;-56
2021/01/28 19:51:49;;;;;;;1.27;1.13;;;16.30;36.00;;;;;;8394615;28;20032;-57
2021/01/28 19:55:51;;;;;;;1.97;1.60;;;16.40;36.10;;;;;;8388838;28;20367;-56
2021/01/28 19:59:51;;;;;;;1.38;1.27;;;16.40;36.10;;;;;;8391042;28;20123;-57
2021/01/28 20:03:52;;;;;;;1.43;1.13;;;16.40;36.10;;;;;;8392148;28;20393;-56
2021/01/28 20:07:53;;;;;;;1.37;1.20;;;16.50;36.10;;;;;;8398562;28;20107;-56
2021/01/28 20:11:53;;;;;;;3.13;1.25;;;16.50;36.10;;;;;;8395942;28;20505;-57
2021/01/28 20:15:55;;;;;;;2.17;1.43;;;16.50;36.30;;;;;;8396310;28;20060;-57
2021/01/28 20:19:56;;;;;;;2.45;1.40;;;16.50;36.20;;;;;;8394590;28;20032;-57
2021/01/28 20:23:56;;;;;;;1.33;1.23;;;16.60;36.10;;;;;;8396552;28;20063;-57
2021/01/28 20:27:57;;;;;;;1.47;1.20;;;16.50;36.20;;;;;;8397339;27;20374;-56
2021/01/28 20:31:57;;;;;;;1.63;1.07;;;16.50;36.20;;;;;;8395233;28;20036;-55
2021/01/28 20:35:58;;;;;;;1.63;1.40;;;16.50;36.00;;;;;;8408287;28;20138;-57
2021/01/28 20:39:58;;;;;;;1.33;1.23;;;16.50;36.00;;;;;;8423645;28;20040;-56
2021/01/28 20:43:59;;;;;;;1.80;1.00;;;16.50;35.90;;;;;;8399266;28;20474;-56
2021/01/28 20:48:00;;;;;;;1.03;1.00;;;16.50;35.90;;;;;;8395140;27;20032;-56
2021/01/28 20:52:04;;;;;;;1.60;1.30;;;16.50;35.80;;;;;;8409718;27;20190;-56
2021/01/28 20:56:05;;;;;;;1.27;1.17;;;16.50;35.80;;;;;;8427192;28;20085;-55
2021/01/28 21:00:12;;;;;;;1.37;1.27;;;16.50;35.90;;;;;;8432259;28;20028;-56
2021/01/28 21:04:12;;;;;;;1.38;1.10;;;16.50;36.00;;;;;;8393325;27;20038;-56
2021/01/28 21:08:13;;;;;;;1.53;1.30;;;16.50;36.10;;;;;;8393984;28;20045;-56